Pagrindinis puslapis
METAR-TAF:

METAR-TAF

Oro uostai :

Portorož, Slovėnija

platuma: 45-31N, ilguma: 013-34E, Aukštis: 95 m

Dabartinis oras

Ataskaita buvo paskelbta 39 minutes, ne 04:00 UTC
Vėjas 7 kt iš Pietryčių
Temperatūra 4°C
Drėgmė 93%
Slėgis 1022 hPa
Matomumas 10 km arba daugiau

METAR: LJPZ 180400Z AUTO 13007KT 9999 SCT075/// BKN180/// 04/03 Q1022

Laikas: 05:39 (04:39 UTC)

Prognozė

Ataskaita buvo paskelbta 2 valandos ir 39 minutes, ne 02:00 UTC
Prognozė galioja nuo 18 metu 03 UTC su 18 metu 12 UTC
Vėjas 5 kt iš Pietryčių
Matomumas: 2500 m
rūkana
Tapsmas
nuo 18 metu 03 UTC su 18 metu 06 UTC
Matomumas: 7000 m
Su prošvaistėmis ne aukštis 4500 ft
Tapsmas
nuo 18 metu 07 UTC su 18 metu 09 UTC
Vėjas 5 kt iš Rytų/Šiaurės Rytų
Su prošvaistėmis ne aukštis 3000 ft
Apsiniaukę ne aukštis 5000 ft
Tapsmas
nuo 18 metu 09 UTC su 18 metu 12 UTC
Su prošvaistėmis ne aukštis 2500 ft
Apsiniaukę ne aukštis 4000 ft
lietus

TAF: LJPZ 180200Z 1803/1812 13005KT 2500 BR NSC BECMG 1803/1806 7000 NSW BKN045 BECMG 1807/1809 06005KT BKN030 OVC050 BECMG 1809/1812 -RA BKN025 OVC040

Orai ataskaitas ir orų prognozės (METAR, TAF).

turimą stotys yra geltonos ir raudonos taškus žemėlapyje.

Perkelti pele per norėdami pamatyti stoties vardą.

Tada spustelėkite, norėdami matyti oro stebėjimo ir prognozės.

Norėdami pakeisti žemėlapį: spustelėkite ant žalios mygtukų su juodo kryžiaus žemyn,; žalią mygtuką su brūkšneliu, jei norite nutolinti; arba žalių rodyklių gretimoms žemėlapius.


METAR-TAF: